Time;durP1;ratioP1;P1;durP2;ratioP2;P2;SDS_P1;SDS_P2;PMS_P1;PMS_P2;Temp;Humidity;BMP_temperature;BMP_pressure;BME280_temperature;BME280_humidity;BME280_pressure;Samples;Min_cycle;Max_cycle;Signal;HPM_P1;HPM_P2
2022/02/28 00:00:52;;;;;;;9.40;5.20;;;;;;;12.02;44.71;102928.66;4908398;29;20037;-50
2022/02/28 00:03:17;;;;;;;19.25;6.13;;;;;;;11.95;44.87;102932.88;4904880;29;20037;-50
2022/02/28 00:05:43;;;;;;;11.17;4.87;;;;;;;11.67;45.41;102932.94;4916400;29;20100;-49
2022/02/28 00:08:08;;;;;;;12.20;4.47;;;;;;;11.53;45.75;102934.31;4911255;29;20036;-48
2022/02/28 00:10:33;;;;;;;10.77;4.67;;;;;;;11.52;45.73;102936.13;4909768;29;20105;-51
2022/02/28 00:12:59;;;;;;;10.70;5.07;;;;;;;11.42;45.97;102932.69;4918042;29;20041;-49
2022/02/28 00:15:24;;;;;;;14.57;4.93;;;;;;;11.54;45.63;102936.84;4906079;29;20039;-47
2022/02/28 00:17:50;;;;;;;13.47;4.40;;;;;;;11.67;45.40;102930.28;4915343;29;20037;-48
2022/02/28 00:20:16;;;;;;;11.40;4.50;;;;;;;11.28;45.72;102924.13;4912022;29;20047;-49
2022/02/28 00:22:43;;;;;;;10.15;4.35;;;;;;;11.48;45.60;102927.56;4908680;29;20041;-49
2022/02/28 00:25:10;;;;;;;11.57;4.93;;;;;;;11.76;44.96;102915.94;4917821;29;20108;-49
2022/02/28 00:27:37;;;;;;;15.50;4.93;;;;;;;11.69;45.38;102917.56;4906855;29;20307;-52
2022/02/28 00:30:08;;;;;;;9.52;4.47;;;;;;;11.65;45.38;102924.22;4913482;29;20105;-53
2022/02/28 00:32:34;;;;;;;9.50;5.10;;;;;;;11.42;45.88;102917.47;4914177;29;20032;-51
2022/02/28 00:35:00;;;;;;;;;;;;;;;11.47;45.23;102919.66;4905644;29;20047;-49
2022/02/28 00:37:26;;;;;;;13.23;5.70;;;;;;;11.45;45.36;102921.66;4917555;29;19923;-49
2022/02/28 00:39:51;;;;;;;10.13;5.27;;;;;;;11.01;46.04;102925.81;4892088;29;20037;-50
2022/02/28 00:42:17;;;;;;;10.80;4.32;;;;;;;11.11;45.69;102919.59;4910711;29;20104;-51
2022/02/28 00:44:43;;;;;;;9.47;3.90;;;;;;;10.69;46.53;102921.69;4915040;29;20044;-50
2022/02/28 00:47:08;;;;;;;12.60;4.10;;;;;;;11.16;45.94;102919.97;4905395;29;20064;-49
2022/02/28 00:49:34;;;;;;;9.73;4.20;;;;;;;11.05;45.90;102912.97;4901136;29;20033;-47
2022/02/28 00:51:59;;;;;;;7.47;4.18;;;;;;;11.11;45.72;102914.22;4908396;29;20039;-48
2022/02/28 00:54:25;;;;;;;8.07;3.50;;;;;;;11.26;45.56;102922.63;4910223;29;20075;-49
2022/02/28 00:56:51;;;;;;;13.50;4.80;;;;;;;10.92;46.21;102918.66;4899425;29;20040;-49
2022/02/28 00:59:17;;;;;;;9.48;4.53;;;;;;;11.04;46.29;102908.63;4905076;29;20244;-52
2022/02/28 01:01:43;;;;;;;9.65;4.95;;;;;;;11.21;45.96;102911.50;4915706;29;20101;-50
2022/02/28 01:04:09;;;;;;;9.43;3.92;;;;;;;10.72;47.29;102910.69;4893841;29;20052;-61
2022/02/28 01:06:35;;;;;;;12.52;5.32;;;;;;;11.18;46.23;102909.97;4908870;29;20045;-51
2022/02/28 01:09:01;;;;;;;10.70;3.70;;;;;;;10.91;46.26;102919.66;4916834;29;20049;-48
2022/02/28 01:11:27;;;;;;;11.65;4.80;;;;;;;10.58;47.43;102908.47;4903683;29;20294;-46
2022/02/28 01:13:52;;;;;;;10.07;4.97;;;;;;;10.90;46.95;102902.75;4913628;29;20037;-51
2022/02/28 01:16:18;;;;;;;9.00;4.13;;;;;;;10.71;48.03;102909.03;4894658;29;20036;-53
2022/02/28 01:18:43;;;;;;;10.97;3.40;;;;;;;10.45;48.21;102906.97;4907733;29;20055;-50
2022/02/28 01:21:09;;;;;;;10.00;4.40;;;;;;;10.53;48.69;102908.06;4917012;29;20056;-47
2022/02/28 01:23:34;;;;;;;9.87;4.13;;;;;;;10.65;48.31;102904.25;4888853;29;20055;-47
2022/02/28 01:26:01;;;;;;;15.82;5.25;;;;;;;10.38;49.19;102895.13;4912969;29;20288;-48
2022/02/28 01:28:27;;;;;;;10.85;4.93;;;;;;;10.59;48.27;102903.00;4895595;29;20051;-51
2022/02/28 01:30:52;;;;;;;10.03;4.60;;;;;;;10.33;49.51;102900.03;4906353;29;20037;-49
2022/02/28 01:33:18;;;;;;;8.07;3.90;;;;;;;10.25;49.59;102899.94;4916796;29;20052;-46
2022/02/28 01:35:44;;;;;;;11.33;4.63;;;;;;;10.04;50.01;102908.94;4905297;29;20094;-50
2022/02/28 01:38:10;;;;;;;10.18;4.10;;;;;;;9.97;50.66;102913.16;4911644;29;20496;-48
2022/02/28 01:40:35;;;;;;;14.77;4.70;;;;;;;9.71;51.56;102909.19;4911770;29;20104;-48
2022/02/28 01:43:03;;;;;;;8.75;4.65;;;;;;;9.84;51.61;102906.25;4905109;29;20037;-51
2022/02/28 01:45:28;;;;;;;9.02;4.78;;;;;;;9.79;51.94;102908.50;4916394;29;20029;-50
2022/02/28 01:47:56;;;;;;;12.30;4.10;;;;;;;9.95;51.39;102909.78;4907443;29;20037;-53
2022/02/28 01:50:23;;;;;;;9.95;4.10;;;;;;;9.85;51.07;102907.94;4893527;29;20056;-49
2022/02/28 01:52:50;;;;;;;10.68;4.30;;;;;;;9.40;53.26;102908.44;4897755;29;20052;-48
2022/02/28 01:55:17;;;;;;;16.67;4.80;;;;;;;9.79;52.41;102911.19;4903738;29;20057;-48
2022/02/28 01:57:44;;;;;;;14.00;4.90;;;;;;;9.65;52.89;102906.22;4914708;29;20044;-50
2022/02/28 02:00:14;;;;;;;13.98;4.65;;;;;;;9.57;52.99;102902.44;4892463;29;20088;-50
2022/02/28 02:02:41;;;;;;;13.95;5.07;;;;;;;9.68;52.52;102906.81;4907464;29;20037;-52
2022/02/28 02:05:07;;;;;;;;;;;;;;;9.90;51.28;102915.56;4916420;29;20047;-46
2022/02/28 02:07:32;;;;;;;9.97;4.50;;;;;;;9.39;53.26;102914.75;4884437;29;19951;-51
2022/02/28 02:09:58;;;;;;;9.07;4.40;;;;;;;9.73;52.52;102909.06;4890924;29;20068;-50
2022/02/28 02:12:28;;;;;;;9.63;4.60;;;;;;;10.12;51.56;102901.03;4909544;29;20057;-51
2022/02/28 02:14:55;;;;;;;10.40;4.75;;;;;;;10.06;51.01;102906.13;4898049;29;20047;-50
2022/02/28 02:17:21;;;;;;;14.38;4.95;;;;;;;9.88;51.57;102899.66;4901380;29;20104;-50
2022/02/28 02:19:47;;;;;;;10.63;4.45;;;;;;;9.43;53.22;102898.34;4897801;29;20062;-50
2022/02/28 02:22:20;;;;;;;7.72;4.22;;;;;;;9.49;53.82;102904.09;4892358;29;20068;-47
2022/02/28 02:24:46;;;;;;;16.40;4.45;;;;;;;10.14;51.08;102912.44;4906439;29;20100;-47
2022/02/28 02:27:11;;;;;;;13.18;4.63;;;;;;;10.31;50.68;102902.88;4899345;29;20041;-48
2022/02/28 02:29:37;;;;;;;10.40;4.73;;;;;;;10.11;50.50;102904.72;4904226;29;20044;-47
2022/02/28 02:32:11;;;;;;;11.07;4.90;;;;;;;9.68;52.42;102901.47;4912138;29;20298;-47
2022/02/28 02:34:37;;;;;;;11.77;4.75;;;;;;;9.63;52.39;102902.84;4895350;29;20044;-48
2022/02/28 02:37:03;;;;;;;15.30;3.67;;;;;;;9.54;52.97;102893.84;4904320;29;20075;-47
2022/02/28 02:39:29;;;;;;;12.52;4.82;;;;;;;9.27;53.92;102906.88;4915737;29;20280;-49
2022/02/28 02:41:54;;;;;;;12.68;5.18;;;;;;;9.08;54.66;102894.28;4906392;29;20033;-51
2022/02/28 02:44:20;;;;;;;7.55;4.20;;;;;;;9.52;53.45;102902.00;4893319;29;20037;-47
2022/02/28 02:46:47;;;;;;;9.50;4.20;;;;;;;9.47;53.45;102899.75;4896238;29;20041;-51
2022/02/28 02:49:18;;;;;;;9.02;4.22;;;;;;;9.64;52.81;102902.72;4902363;29;20037;-48
2022/02/28 02:51:44;;;;;;;9.53;4.60;;;;;;;9.63;52.08;102898.38;4912622;29;20097;-47
2022/02/28 02:54:13;;;;;;;9.80;4.25;;;;;;;9.77;52.01;102902.47;4891737;29;20044;-49
2022/02/28 02:56:39;;;;;;;11.05;5.25;;;;;;;9.67;52.53;102904.25;4899231;29;20033;-49
2022/02/28 02:59:06;;;;;;;10.50;4.65;;;;;;;9.86;51.85;102903.47;4895476;29;20037;-47
2022/02/28 03:01:33;;;;;;;9.13;4.20;;;;;;;9.77;51.65;102902.47;4898755;29;20104;-53
2022/02/28 03:03:59;;;;;;;16.60;5.13;;;;;;;9.79;51.56;102907.66;4902335;29;20040;-50
2022/02/28 03:06:26;;;;;;;8.23;4.18;;;;;;;9.76;51.83;102912.28;4883680;29;20040;-47
2022/02/28 03:08:52;;;;;;;7.22;3.90;;;;;;;9.78;51.68;102901.47;4893724;29;20037;-50
2022/02/28 03:11:18;;;;;;;7.57;4.60;;;;;;;9.93;51.17;102898.41;4915633;29;20072;-50
2022/02/28 03:13:43;;;;;;;13.00;4.70;;;;;;;9.80;51.58;102893.31;4913228;29;20040;-49
2022/02/28 03:16:09;;;;;;;11.15;4.72;;;;;;;9.79;51.87;102905.84;4891096;29;20286;-51
2022/02/28 03:18:38;;;;;;;13.43;4.63;;;;;;;9.66;52.13;102895.41;4906371;29;20045;-50
2022/02/28 03:21:04;;;;;;;15.77;4.50;;;;;;;9.53;53.34;102893.00;4898381;29;20037;-48
2022/02/28 03:23:33;;;;;;;8.65;4.32;;;;;;;9.65;53.08;102893.72;4902290;29;20082;-47
2022/02/28 03:26:04;;;;;;;10.32;4.70;;;;;;;9.49;53.11;102890.75;4894985;29;20029;-49
2022/02/28 03:28:30;;;;;;;;;;;;;;;9.38;53.86;102897.91;4894286;29;20036;-48
2022/02/28 03:30:56;;;;;;;11.67;4.23;;;;;;;9.32;54.44;102898.44;4904954;29;19979;-48
2022/02/28 03:33:22;;;;;;;9.50;4.50;;;;;;;9.42;53.85;102896.66;4898773;29;20048;-50
2022/02/28 03:35:48;;;;;;;15.05;4.97;;;;;;;9.47;53.94;102904.25;4904595;29;20103;-51
2022/02/28 03:38:14;;;;;;;10.43;4.13;;;;;;;9.54;53.61;102899.19;4893855;29;20105;-47
2022/02/28 03:40:39;;;;;;;8.68;4.03;;;;;;;9.49;53.50;102902.28;4911193;29;20048;-48
2022/02/28 03:43:06;;;;;;;15.32;6.00;;;;;;;9.42;53.45;102899.31;4887299;29;20079;-48
2022/02/28 03:46:02;;;;;;;13.23;4.72;;;;;;;9.50;53.34;102903.13;4889844;29;20064;-49
2022/02/28 03:48:36;;;;;;;11.15;4.63;;;;;;;9.29;53.87;102904.03;4906519;29;20037;-48
2022/02/28 03:51:19;;;;;;;11.88;4.90;;;;;;;9.33;53.74;102902.78;4898331;29;20041;-50
2022/02/28 03:53:45;;;;;;;;;;;;;;;9.38;53.67;102899.72;4888086;29;20084;-50
2022/02/28 03:56:12;;;;;;;16.35;4.85;;;;;;;9.24;54.14;102904.47;4894087;29;19951;-47
2022/02/28 03:58:38;;;;;;;11.57;4.90;;;;;;;9.37;54.01;102901.56;4910877;29;20075;-50
2022/02/28 04:01:05;;;;;;;9.73;3.58;;;;;;;9.27;54.75;102896.19;4902844;29;20283;-50
2022/02/28 04:03:32;;;;;;;10.60;4.50;;;;;;;8.92;55.89;102894.78;4901589;29;20045;-50
2022/02/28 04:05:58;;;;;;;10.00;4.40;;;;;;;9.16;54.72;102890.94;4892394;29;20116;-50
2022/02/28 04:08:23;;;;;;;9.40;4.10;;;;;;;9.13;55.13;102891.22;4912497;29;20073;-52
2022/02/28 04:10:49;;;;;;;10.77;3.80;;;;;;;9.28;54.57;102897.88;4883451;29;20104;-48
2022/02/28 04:13:16;;;;;;;9.48;4.78;;;;;;;9.26;54.56;102891.84;4889513;29;20044;-50
2022/02/28 04:15:42;;;;;;;;;;;;;;;9.30;54.09;102893.25;4902467;29;20148;-48
2022/02/28 04:18:09;;;;;;;10.40;4.85;;;;;;;9.21;54.58;102894.03;4906125;29;19984;-48
2022/02/28 04:21:00;;;;;;;11.68;4.75;;;;;;;9.24;53.91;102890.25;4902332;29;20079;-47
2022/02/28 04:23:27;;;;;;;9.13;4.60;;;;;;;9.24;53.84;102898.28;4903643;29;20036;-48
2022/02/28 04:25:52;;;;;;;11.75;5.20;;;;;;;9.22;53.62;102900.25;4901888;29;20056;-51
2022/02/28 04:28:18;;;;;;;9.57;4.05;;;;;;;9.30;53.48;102890.56;4891633;29;20037;-49
2022/02/28 04:30:44;;;;;;;14.03;4.70;;;;;;;9.12;54.10;102892.19;4886250;29;20112;-51
2022/02/28 04:33:10;;;;;;;14.13;5.22;;;;;;;9.26;53.63;102891.84;4917184;29;20067;-53
2022/02/28 04:35:36;;;;;;;10.35;4.53;;;;;;;9.02;54.25;102886.81;4889498;29;20032;-50
2022/02/28 04:38:07;;;;;;;9.90;4.78;;;;;;;9.03;54.87;102881.34;4914448;29;20074;-50
2022/02/28 04:40:34;;;;;;;9.30;5.10;;;;;;;8.99;54.94;102887.09;4897413;29;20031;-52
2022/02/28 04:43:04;;;;;;;11.25;5.00;;;;;;;8.74;55.97;102886.56;4891105;29;20390;-48
2022/02/28 04:45:29;;;;;;;10.98;4.97;;;;;;;8.94;55.48;102889.31;4916598;29;20411;-49
2022/02/28 04:47:55;;;;;;;10.18;4.95;;;;;;;9.03;54.69;102881.34;4907466;29;20040;-48
2022/02/28 04:50:59;;;;;;;10.13;5.13;;;;;;;8.87;55.47;102879.16;4920612;29;20040;-47
2022/02/28 04:53:25;;;;;;;15.88;5.38;;;;;;;9.01;55.59;102886.00;4889063;29;20041;-47
2022/02/28 04:55:52;;;;;;;12.52;4.72;;;;;;;9.10;55.44;102880.81;4901363;29;20386;-48
2022/02/28 04:58:19;;;;;;;13.02;4.97;;;;;;;9.00;55.46;102878.97;4898071;29;20037;-48
2022/02/28 05:00:57;;;;;;;10.60;4.88;;;;;;;8.88;56.10;102880.03;4911326;29;20045;-49
2022/02/28 05:03:23;;;;;;;12.77;5.15;;;;;;;8.70;56.89;102877.97;4885651;29;20121;-52
2022/02/28 05:05:49;;;;;;;12.70;4.87;;;;;;;8.70;56.57;102880.63;4896456;29;20045;-52
2022/02/28 05:08:15;;;;;;;11.05;3.70;;;;;;;8.82;57.54;102884.06;4890030;29;20056;-49
2022/02/28 05:10:41;;;;;;;10.27;4.80;;;;;;;8.44;59.48;102886.34;4889793;29;20045;-51
2022/02/28 05:13:14;;;;;;;12.02;5.22;;;;;;;8.57;58.27;102888.03;4882420;29;20212;-51
2022/02/28 05:15:40;;;;;;;14.88;5.05;;;;;;;8.52;59.42;102887.53;4901487;29;20032;-52
2022/02/28 05:18:07;;;;;;;11.82;5.05;;;;;;;8.73;59.40;102885.69;4894029;29;20037;-54
2022/02/28 05:20:33;;;;;;;15.75;5.72;;;;;;;8.93;57.63;102888.47;4877041;29;20431;-52
2022/02/28 05:22:58;;;;;;;12.53;5.07;;;;;;;8.81;58.62;102881.53;4902798;29;20070;-46
2022/02/28 05:25:24;;;;;;;9.47;4.97;;;;;;;8.86;58.59;102884.66;4897396;29;20037;-52
2022/02/28 05:27:52;;;;;;;14.63;5.82;;;;;;;8.66;59.57;102881.88;4886804;29;20048;-51
2022/02/28 05:30:19;;;;;;;11.57;5.28;;;;;;;8.57;60.02;102890.69;4897520;29;20151;-49
2022/02/28 05:32:47;;;;;;;14.10;6.10;;;;;;;8.64;59.78;102891.84;4890723;29;20047;-49
2022/02/28 05:35:20;;;;;;;17.40;5.57;;;;;;;8.44;60.97;102889.03;4897127;29;20036;-53
2022/02/28 05:38:08;;;;;;;13.52;5.10;;;;;;;8.47;61.46;102891.44;4888447;29;20109;-50
2022/02/28 05:40:36;;;;;;;14.77;5.80;;;;;;;8.49;60.82;102893.97;4897270;29;20033;-50
2022/02/28 05:43:04;;;;;;;10.88;5.20;;;;;;;8.52;60.67;102901.75;4892562;29;20037;-49
2022/02/28 05:45:29;;;;;;;12.60;6.03;;;;;;;8.58;60.74;102895.03;4898659;29;20086;-50
2022/02/28 05:48:15;;;;;;;19.58;6.40;;;;;;;8.40;61.69;102894.75;4893281;29;20113;-51
2022/02/28 05:50:42;;;;;;;14.27;5.80;;;;;;;8.01;64.07;102901.50;4892776;29;20037;-51
2022/02/28 05:53:08;;;;;;;15.90;6.47;;;;;;;8.29;63.20;102884.97;4886785;29;20056;-51
2022/02/28 05:55:36;;;;;;;13.18;6.50;;;;;;;8.25;63.14;102887.09;4908066;29;20085;-50
2022/02/28 05:58:03;;;;;;;15.02;7.05;;;;;;;7.74;67.67;102889.47;4890826;29;20073;-47
2022/02/28 06:00:28;;;;;;;;;;;;;;;7.66;69.29;102893.75;4910620;29;20064;-50
2022/02/28 06:02:54;;;;;;;17.00;7.33;;;;;;;7.72;68.72;102893.22;4913776;29;20355;-50
2022/02/28 06:05:19;;;;;;;12.47;6.77;;;;;;;7.24;73.07;102900.59;4904055;29;20137;-49
2022/02/28 06:07:46;;;;;;;16.63;6.97;;;;;;;7.40;73.28;102902.03;4915998;29;20041;-50
2022/02/28 06:10:12;;;;;;;17.20;7.25;;;;;;;7.69;69.89;102901.47;4907832;29;20047;-53
2022/02/28 06:12:37;;;;;;;10.47;5.07;;;;;;;7.70;70.39;102900.50;4909275;29;20037;-49
2022/02/28 06:15:03;;;;;;;19.30;8.00;;;;;;;7.46;73.54;102899.69;4914473;29;20039;-50
2022/02/28 06:17:29;;;;;;;18.42;6.63;;;;;;;7.44;71.85;102903.47;4903736;29;20105;-49
2022/02/28 06:19:55;;;;;;;19.13;7.63;;;;;;;7.32;75.14;102906.13;4914694;29;20029;-50
2022/02/28 06:22:21;;;;;;;12.90;5.85;;;;;;;7.24;75.70;102915.69;4908915;29;20072;-46
2022/02/28 06:24:46;;;;;;;15.10;7.28;;;;;;;7.37;74.24;102904.91;4891261;29;20049;-53
2022/02/28 06:27:12;;;;;;;25.37;8.77;;;;;;;7.46;71.51;102921.00;4915264;29;20045;-48
2022/02/28 06:29:39;;;;;;;22.08;7.75;;;;;;;7.35;72.96;102912.19;4903425;29;20040;-48
2022/02/28 06:32:07;;;;;;;15.85;6.72;;;;;;;7.19;75.38;102916.09;4912631;29;20047;-46
2022/02/28 06:34:32;;;;;;;15.63;8.27;;;;;;;7.37;74.31;102921.75;4909774;29;20040;-53
2022/02/28 06:36:58;;;;;;;10.67;5.67;;;;;;;7.19;75.95;102918.75;4918943;29;20040;-49
2022/02/28 06:39:25;;;;;;;14.20;6.15;;;;;;;7.22;75.71;102915.84;4903417;29;20044;-50
2022/02/28 06:41:52;;;;;;;16.60;6.82;;;;;;;7.34;73.14;102913.16;4918918;29;20063;-51
2022/02/28 06:44:18;;;;;;;16.80;7.82;;;;;;;7.08;76.52;102924.06;4911195;29;20037;-47
2022/02/28 06:46:43;;;;;;;13.17;6.57;;;;;;;7.34;74.17;102923.81;4910967;29;20051;-50
2022/02/28 06:49:09;;;;;;;17.80;7.70;;;;;;;7.29;75.72;102925.03;4904484;29;20039;-50
2022/02/28 06:51:34;;;;;;;13.10;6.77;;;;;;;7.39;74.65;102927.78;4915380;29;20036;-51
2022/02/28 06:53:59;;;;;;;16.57;7.50;;;;;;;7.18;75.76;102927.69;4905507;29;20051;-45
2022/02/28 06:56:25;;;;;;;16.15;7.13;;;;;;;7.15;75.40;102930.56;4918811;29;20052;-48
2022/02/28 06:58:51;;;;;;;13.05;6.63;;;;;;;7.13;77.50;102937.84;4906932;29;20071;-50
2022/02/28 07:01:17;;;;;;;17.20;8.77;;;;;;;7.43;73.73;102936.38;4898976;29;20044;-49
2022/02/28 07:03:47;;;;;;;17.05;7.10;;;;;;;7.29;76.78;102935.66;4902229;29;20033;-50
2022/02/28 07:06:20;;;;;;;13.53;6.57;;;;;;;7.30;75.24;102931.19;4911710;29;20061;-46
2022/02/28 07:08:46;;;;;;;16.63;8.07;;;;;;;7.63;73.00;102933.94;4911184;29;20231;-51
2022/02/28 07:11:13;;;;;;;14.88;7.60;;;;;;;7.55;72.40;102930.06;4904127;29;20060;-50
2022/02/28 07:13:39;;;;;;;12.10;6.68;;;;;;;7.58;72.65;102934.31;4915222;29;20063;-51
2022/02/28 07:16:04;;;;;;;15.10;7.33;;;;;;;7.69;72.60;102928.13;4900071;29;20033;-49
2022/02/28 07:18:30;;;;;;;14.17;6.47;;;;;;;7.89;71.30;102934.47;4909125;29;20037;-48
2022/02/28 07:20:55;;;;;;;13.70;6.87;;;;;;;7.55;73.10;102935.38;4906194;29;20033;-50
2022/02/28 07:23:21;;;;;;;21.43;7.90;;;;;;;7.76;71.83;102942.63;4915191;29;20304;-49
2022/02/28 07:25:46;;;;;;;18.05;7.90;;;;;;;8.30;68.00;102948.00;4903208;29;20028;-49
2022/02/28 07:28:12;;;;;;;18.17;7.93;;;;;;;7.95;68.00;102944.63;4911582;29;20068;-48
2022/02/28 07:30:38;;;;;;;17.50;7.97;;;;;;;8.33;67.19;102948.59;4909779;29;20052;-49
2022/02/28 07:33:03;;;;;;;15.85;6.90;;;;;;;8.37;66.50;102943.84;4905017;29;20037;-50
2022/02/28 07:35:28;;;;;;;19.83;7.90;;;;;;;8.31;66.66;102947.03;4914921;29;20043;-49
2022/02/28 07:37:54;;;;;;;22.47;7.87;;;;;;;8.14;68.06;102949.28;4906422;29;20048;-49
2022/02/28 07:40:20;;;;;;;13.05;7.13;;;;;;;8.39;67.24;102957.91;4914110;29;20040;-48
2022/02/28 07:42:45;;;;;;;15.75;7.00;;;;;;;8.50;66.35;102948.16;4914109;29;20052;-48
2022/02/28 07:45:11;;;;;;;14.10;7.97;;;;;;;8.31;67.32;102968.38;4907162;29;20097;-49
2022/02/28 07:47:37;;;;;;;18.25;8.48;;;;;;;8.48;67.41;102966.94;4918406;29;20048;-47
2022/02/28 07:50:03;;;;;;;9.48;5.65;;;;;;;8.58;66.05;102977.72;4908444;29;20037;-49
2022/02/28 07:52:30;;;;;;;19.25;7.68;;;;;;;8.75;65.50;102974.44;4912421;29;20070;-45
2022/02/28 07:54:56;;;;;;;16.60;7.80;;;;;;;8.85;65.22;102969.19;4915102;29;20048;-52
2022/02/28 07:57:22;;;;;;;18.20;7.43;;;;;;;8.94;64.13;102977.38;4921270;29;20051;-47
2022/02/28 07:59:47;;;;;;;15.00;6.87;;;;;;;9.06;62.68;102973.66;4890121;29;20108;-48
2022/02/28 08:02:12;;;;;;;19.37;7.60;;;;;;;8.94;63.91;102977.38;4921673;29;20040;-50
2022/02/28 08:04:38;;;;;;;15.00;7.40;;;;;;;9.38;61.86;102975.34;4911504;29;20036;-49
2022/02/28 08:07:03;;;;;;;15.83;7.77;;;;;;;9.04;63.59;102973.78;4915807;29;20061;-47
2022/02/28 08:09:30;;;;;;;19.60;8.23;;;;;;;9.01;64.30;102974.06;4905038;29;20037;-48
2022/02/28 08:11:58;;;;;;;16.23;8.23;;;;;;;9.10;64.88;102969.72;4917315;29;20048;-51
2022/02/28 08:14:23;;;;;;;18.10;8.30;;;;;;;9.35;63.51;102966.75;4910769;29;20052;-51
2022/02/28 08:16:50;;;;;;;19.92;8.63;;;;;;;8.93;65.81;102965.03;4917465;29;20040;-51
2022/02/28 08:19:17;;;;;;;16.10;7.72;;;;;;;9.12;65.73;102965.13;4914066;29;20053;-48
2022/02/28 08:21:43;;;;;;;18.05;7.53;;;;;;;9.11;65.91;102965.25;4918108;29;20095;-51
2022/02/28 08:24:09;;;;;;;19.13;7.28;;;;;;;9.14;65.39;102968.50;4908419;29;20041;-47
2022/02/28 08:26:35;;;;;;;18.60;8.30;;;;;;;9.38;65.68;102963.81;4920780;29;20073;-50
2022/02/28 08:29:01;;;;;;;18.58;8.40;;;;;;;9.70;63.32;102973.47;4921158;29;20041;-49
2022/02/28 08:31:27;;;;;;;16.38;7.80;;;;;;;9.53;63.22;102970.47;4905209;29;20134;-48
2022/02/28 08:33:52;;;;;;;14.57;7.30;;;;;;;9.87;62.15;102970.13;4916827;29;20037;-47
2022/02/28 08:36:18;;;;;;;16.90;7.80;;;;;;;10.26;60.21;102973.81;4909402;29;20047;-49
2022/02/28 08:38:43;;;;;;;17.87;7.97;;;;;;;10.50;58.47;102978.78;4910566;29;20064;-47
2022/02/28 08:41:09;;;;;;;16.87;7.07;;;;;;;10.24;58.63;102978.47;4910106;29;20048;-47
2022/02/28 08:43:36;;;;;;;17.00;7.00;;;;;;;10.82;57.05;102969.56;4907531;29;20033;-47
2022/02/28 08:46:02;;;;;;;15.40;7.47;;;;;;;11.38;54.35;102968.81;4920707;29;20044;-51
2022/02/28 08:48:27;;;;;;;12.60;7.78;;;;;;;12.02;51.17;102977.75;4914063;29;20100;-47
2022/02/28 08:50:53;;;;;;;8.90;5.82;;;;;;;12.47;49.02;102973.28;4902137;29;20041;-50
2022/02/28 08:53:20;;;;;;;11.57;6.43;;;;;;;12.77;48.05;102978.34;4916478;29;20112;-53
2022/02/28 08:55:46;;;;;;;14.05;7.05;;;;;;;13.31;46.59;102975.47;4904757;29;20147;-52
2022/02/28 08:58:11;;;;;;;12.03;7.10;;;;;;;13.94;45.13;102971.66;4920625;29;20036;-48
2022/02/28 09:00:37;;;;;;;15.85;7.03;;;;;;;14.38;43.47;102970.50;4920474;29;20073;-47
2022/02/28 09:03:06;;;;;;;12.33;6.70;;;;;;;14.86;42.52;102978.72;4907143;29;20041;-49
2022/02/28 09:05:35;;;;;;;12.80;6.88;;;;;;;15.23;41.55;102971.91;4916956;29;20044;-47
2022/02/28 09:08:00;;;;;;;12.93;6.35;;;;;;;15.82;40.68;102969.75;4906324;29;20040;-49
2022/02/28 09:10:25;;;;;;;12.53;6.40;;;;;;;16.06;39.24;102976.84;4919906;29;20048;-49
2022/02/28 09:12:52;;;;;;;11.00;6.15;;;;;;;16.81;38.08;102973.47;4909009;29;20040;-49
2022/02/28 09:15:19;;;;;;;16.42;7.38;;;;;;;17.16;36.77;102971.09;4916023;29;20047;-50
2022/02/28 09:17:44;;;;;;;10.40;6.25;;;;;;;18.30;35.17;102975.06;4916992;29;20064;-51
2022/02/28 09:20:10;;;;;;;16.00;6.73;;;;;;;18.90;33.83;102982.78;4907243;29;20079;-54
2022/02/28 09:22:35;;;;;;;12.07;6.38;;;;;;;18.84;33.60;102986.31;4919873;29;20069;-48
2022/02/28 09:25:00;;;;;;;14.13;6.67;;;;;;;19.67;32.45;102979.19;4907412;29;20092;-48
2022/02/28 09:27:27;;;;;;;12.40;6.80;;;;;;;19.19;31.75;102970.03;4916595;29;20037;-48
2022/02/28 09:29:53;;;;;;;13.50;6.37;;;;;;;19.17;32.23;102966.69;4901277;29;20033;-51
2022/02/28 09:32:19;;;;;;;10.30;6.10;;;;;;;19.84;31.23;102959.81;4907504;29;20271;-51
2022/02/28 09:34:44;;;;;;;14.25;5.95;;;;;;;20.32;30.45;102962.38;4909334;29;20045;-50
2022/02/28 09:37:11;;;;;;;10.27;6.37;;;;;;;20.65;30.00;102970.72;4914356;29;20061;-52
2022/02/28 09:39:36;;;;;;;11.90;6.25;;;;;;;19.91;30.78;102961.53;4912077;29;20040;-48
2022/02/28 09:42:25;;;;;;;10.63;6.40;;;;;;;20.74;29.12;102967.53;4911661;29;20070;-51
2022/02/28 09:45:10;;;;;;;12.97;5.97;;;;;;;20.73;29.26;102957.72;4912542;29;20294;-52
2022/02/28 09:48:06;;;;;;;11.23;6.30;;;;;;;21.34;28.80;102947.50;4900092;29;20328;-53
2022/02/28 09:51:04;;;;;;;10.93;6.50;;;;;;;21.92;27.46;102945.72;4913391;29;20290;-51
2022/02/28 09:53:48;;;;;;;10.93;5.83;;;;;;;22.13;27.49;102953.72;4916452;29;20309;-50
2022/02/28 09:56:33;;;;;;;14.20;6.53;;;;;;;22.24;27.49;102944.81;4892766;29;20283;-53
2022/02/28 09:59:19;;;;;;;13.37;6.20;;;;;;;21.92;27.58;102944.88;4918658;29;20390;-51
2022/02/28 10:01:45;;;;;;;10.43;5.80;;;;;;;21.75;27.16;102947.31;4884741;29;20309;-51
2022/02/28 10:04:13;;;;;;;13.55;5.60;;;;;;;21.46;28.11;102949.56;4889697;29;20055;-54
2022/02/28 10:06:39;;;;;;;9.70;5.73;;;;;;;21.82;27.40;102948.09;4919271;29;20044;-53
2022/02/28 10:09:07;;;;;;;9.77;6.93;;;;;;;22.35;27.41;102937.78;4906181;29;20069;-51
2022/02/28 10:11:41;;;;;;;12.53;6.20;;;;;;;22.84;26.61;102937.97;4900891;29;20045;-50
2022/02/28 10:14:10;;;;;;;13.83;5.93;;;;;;;22.83;25.78;102933.56;4918855;29;20064;-51
2022/02/28 10:16:41;;;;;;;12.13;5.80;;;;;;;23.03;26.23;102930.59;4910120;29;20029;-50
2022/02/28 10:19:23;;;;;;;11.83;6.10;;;;;;;22.89;25.98;102932.66;4912768;29;20084;-51
2022/02/28 10:21:51;;;;;;;11.33;6.57;;;;;;;23.26;25.76;102923.59;4915948;29;20037;-49
2022/02/28 10:24:19;;;;;;;13.13;6.50;;;;;;;24.57;24.95;102931.19;4889993;29;20045;-52
2022/02/28 10:27:00;;;;;;;12.77;5.83;;;;;;;23.75;25.18;102930.88;4905870;29;20036;-51
2022/02/28 10:29:45;;;;;;;11.30;5.97;;;;;;;23.77;24.09;102939.69;4915730;29;20070;-53
2022/02/28 10:32:49;;;;;;;11.73;5.97;;;;;;;23.67;23.64;102934.81;4894610;29;20051;-51
2022/02/28 10:36:01;;;;;;;10.13;5.37;;;;;;;24.76;22.78;102943.69;4890986;29;20083;-52
2022/02/28 10:38:48;;;;;;;10.93;6.23;;;;;;;25.73;22.73;102945.84;4892117;29;20044;-53
2022/02/28 10:41:30;;;;;;;16.53;6.27;;;;;;;26.40;22.25;102950.72;4913751;29;20040;-53
2022/02/28 10:43:57;;;;;;;9.20;5.37;;;;;;;26.48;21.48;102953.06;4903627;29;20051;-55
2022/02/28 10:46:26;;;;;;;8.93;6.50;;;;;;;26.54;21.37;102956.72;4911404;29;20109;-53
2022/02/28 10:48:59;;;;;;;9.97;5.90;;;;;;;27.68;20.62;102955.28;4910856;29;20100;-52
2022/02/28 10:51:25;;;;;;;10.80;5.87;;;;;;;27.20;21.06;102951.22;4915820;29;20043;-52
2022/02/28 10:54:09;;;;;;;;;;;;;;;27.80;20.30;102950.44;4903422;29;20036;-53
2022/02/28 10:56:49;;;;;;;10.57;6.07;;;;;;;28.54;19.10;102964.47;4917572;29;19930;-53
2022/02/28 10:59:16;;;;;;;10.50;5.53;;;;;;;27.44;20.24;102952.81;4903956;29;20048;-49
2022/02/28 11:01:42;;;;;;;11.50;5.73;;;;;;;28.02;19.43;102955.03;4914105;29;20040;-53
2022/02/28 11:04:08;;;;;;;;;;;;;;;28.24;19.60;102956.84;4904427;29;20120;-54
2022/02/28 11:06:34;;;;;;;8.67;5.70;;;;;;;28.84;19.04;102956.66;4909189;29;19920;-49
2022/02/28 11:08:59;;;;;;;;;;;;;;;29.55;18.29;102948.84;4899899;29;20045;-53
2022/02/28 11:11:25;;;;;;;11.23;5.87;;;;;;;28.76;19.16;102950.53;4898819;29;20032;-50
2022/02/28 11:13:51;;;;;;;;;;;;;;;29.82;17.77;102954.09;4918061;29;20048;-49
2022/02/28 11:16:17;;;;;;;14.07;5.73;;;;;;;27.81;17.19;102948.53;4908474;29;20367;-52
2022/02/28 11:18:43;;;;;;;;;;;;;;;27.10;18.51;102937.38;4911651;29;20096;-50
2022/02/28 11:21:09;;;;;;;9.03;5.43;;;;;;;27.28;18.32;102927.13;4914707;29;19919;-54
2022/02/28 11:23:44;;;;;;;7.83;5.63;;;;;;;26.83;18.19;102927.16;4904432;29;20041;-54
2022/02/28 11:26:09;;;;;;;10.60;6.03;;;;;;;27.13;19.08;102923.16;4915259;29;20041;-54
2022/02/28 11:28:36;;;;;;;9.90;6.17;;;;;;;27.87;18.57;102934.56;4910916;29;20096;-55
2022/02/28 11:31:09;;;;;;;8.20;5.30;;;;;;;28.64;17.70;102930.66;4909080;29;20126;-53